Nissos Serifos — SVBJ4 — position and weather

sailwx.info

Track history (hours):
 
Tides and Currents Weather Stations Pressure Air Temp Water Temp Dewpoint Dewpoint Depression Visibility Wind Speed Wind Dir Waves Ship Positions

Nissos Serifos

Last reported at 2017-Oct-17 16:05 UTC. Time now 2017-Oct-18 17:00 UTC.
Position N 35°48' E 032°03'.

Length 249 m; draft 8 m.

Type: Tanker. MMSI: 241136000.

Date/timePositionNaut miles runAvg speedWind from/ knotsBaromVisibWave heightAir tempDewpointWater temp
2017-Oct-17 16:05N 35°48' E 032°03'112.1
2017-Oct-17 16:00N 35°48' E 032°02'612.1
2017-Oct-17 15:30N 35°48' E 031°54'612.3
2017-Oct-17 15:01N 35°48' E 031°47'612.3
2017-Oct-17 14:30N 35°48' E 031°39'612.4
2017-Oct-17 14:00N 35°48' E 031°32'712.6
2017-Oct-17 13:29N 35°48' E 031°24'35 9.8
2017-Oct-17 09:53N 35°48' E 030°40'3 7.6
2017-Oct-17 09:30N 35°48' E 030°36'11 7.5
2017-Oct-17 08:00N 35°48' E 030°22'  
2017-Oct-14 23:57N 38°52' E 019°47'512.1
2017-Oct-14 23:30N 38°57' E 019°45'612.3
2017-Oct-14 23:00N 39°03' E 019°42'612.0
2017-Oct-14 22:31N 39°08' E 019°38'612.1
2017-Oct-14 22:01N 39°13' E 019°35'711.9
2017-Oct-14 21:24N 39°20' E 019°31'911.8
2017-Oct-14 20:38N 39°28' E 019°26'211.8
2017-Oct-14 20:28N 39°30' E 019°25'511.8
2017-Oct-14 20:00N 39°35' E 019°22'612.1
2017-Oct-14 19:30N 39°40' E 019°19'612.4
2017-Oct-14 19:00N 39°46' E 019°16'612.4
2017-Oct-14 18:30N 39°52' E 019°12'612.5
2017-Oct-14 18:00N 39°58' E 019°09'612.3
2017-Oct-14 17:30N 40°03' E 019°05'612.1
2017-Oct-14 17:00N 40°07' E 018°60'812.2
2017-Oct-14 16:22N 40°13' E 018°53'512.2
2017-Oct-14 15:59N 40°16' E 018°48'26012.3
2017-Oct-13 18:49N 43°25' E 014°49'512.3
2017-Oct-13 18:24N 43°29' E 014°44'512.1
2017-Oct-13 18:00N 43°32' E 014°40'1312.3
2017-Oct-13 16:57N 43°43' E 014°29'612.0
2017-Oct-13 16:28N 43°47' E 014°24'1211.8
2017-Oct-13 15:27N 43°57' E 014°13'1211.8
2017-Oct-13 14:28N 44°05' E 014°03'611.9
2017-Oct-13 14:00N 44°10' E 013°59'611.9
2017-Oct-13 13:30N 44°15' E 013°54'612.0
2017-Oct-13 13:00N 44°20' E 013°50'612.0
2017-Oct-13 12:30N 44°25' E 013°45'612.0
2017-Oct-13 12:00N 44°30' E 013°40'611.9
2017-Oct-13 11:30N 44°35' E 013°36'612.0
2017-Oct-13 11:00N 44°40' E 013°31'611.9
2017-Oct-13 10:30N 44°45' E 013°27'612.0
2017-Oct-13 10:00N 44°50' E 013°22'611.9
2017-Oct-13 09:30N 44°55' E 013°17'611.8
2017-Oct-13 09:00N 45°00' E 013°13'612.0
2017-Oct-13 08:30N 45°05' E 013°08'611.9
2017-Oct-13 08:00N 45°10' E 013°04'611.8
2017-Oct-13 07:31N 45°16' E 013°01'611.7
2017-Oct-13 07:01N 45°21' E 012°58'4 8.3
2017-Oct-13 06:29N 45°25' E 012°56'0 0.1
2017-Oct-13 05:59N 45°25' E 012°56'0 0.1
2017-Oct-13 05:20N 45°25' E 012°55'0 0.0
2017-Oct-13 04:56N 45°25' E 012°55'0 0.0
2017-Oct-13 04:26N 45°25' E 012°55'0 0.0
2017-Oct-13 03:59N 45°25' E 012°55'0 0.0
2017-Oct-13 03:29N 45°25' E 012°55'0 0.0
2017-Oct-13 02:50N 45°25' E 012°55'0 0.0
2017-Oct-13 02:29N 45°25' E 012°55'0 0.1
2017-Oct-13 01:59N 45°25' E 012°55'0 0.1
2017-Oct-13 01:26N 45°25' E 012°55'0 0.2
2017-Oct-13 00:59N 45°25' E 012°56'0 0.1
2017-Oct-13 00:29N 45°25' E 012°56'0 0.0
2017-Oct-12 23:56N 45°25' E 012°56'0 0.0
2017-Oct-12 23:29N 45°25' E 012°56'0 0.0
2017-Oct-12 22:53N 45°25' E 012°56'0 0.0
2017-Oct-12 22:29N 45°25' E 012°56'0 0.0
2017-Oct-12 21:59N 45°25' E 012°56'0 0.0
2017-Oct-12 21:26N 45°25' E 012°56'0 0.0
2017-Oct-12 20:56N 45°25' E 012°56'0 0.0
2017-Oct-12 20:29N 45°25' E 012°56'0 0.0
2017-Oct-12 19:53N 45°25' E 012°56'0 0.0
2017-Oct-12 19:29N 45°25' E 012°56'0 0.0
2017-Oct-12 18:53N 45°25' E 012°56'0 0.0
2017-Oct-12 18:29N 45°25' E 012°56'0 0.0
2017-Oct-12 17:59N 45°25' E 012°56'0 0.0
2017-Oct-12 17:29N 45°25' E 012°56'0 0.0
2017-Oct-12 16:59N 45°25' E 012°56'0 0.0
2017-Oct-12 16:26N 45°25' E 012°56'0 0.0
2017-Oct-12 15:59N 45°25' E 012°56'0 0.0
2017-Oct-12 15:29N 45°25' E 012°56'0 0.0
2017-Oct-12 14:59N 45°25' E 012°56'0 0.0
2017-Oct-12 14:29N 45°25' E 012°56'0 0.0
2017-Oct-12 13:59N 45°25' E 012°56'0 0.0
2017-Oct-12 13:26N 45°25' E 012°56'0 0.1
2017-Oct-12 12:56N 45°25' E 012°56'0 0.1
2017-Oct-12 12:29N 45°25' E 012°55'0 0.1
2017-Oct-12 11:53N 45°25' E 012°55'0 0.1
2017-Oct-12 11:29N 45°25' E 012°55'0 0.1
2017-Oct-12 10:47N 45°25' E 012°55'0 0.1
2017-Oct-12 10:20N 45°25' E 012°56'0 0.2
2017-Oct-12 09:59N 45°25' E 012°56'0 0.1
2017-Oct-12 09:29N 45°25' E 012°56'0 0.1
2017-Oct-12 08:56N 45°25' E 012°56'0 0.1
2017-Oct-12 08:26N 45°25' E 012°56'0 0.0
2017-Oct-12 07:59N 45°25' E 012°56'0 0.0
2017-Oct-12 07:26N 45°25' E 012°56'0 0.1
2017-Oct-12 06:53N 45°25' E 012°56'0 0.1
2017-Oct-12 06:29N 45°25' E 012°56'0 0.0
2017-Oct-12 05:59N 45°25' E 012°56'0 0.0
2017-Oct-12 05:29N 45°25' E 012°56'0 0.0
2017-Oct-12 04:59N 45°25' E 012°56'0 0.1
2017-Oct-12 04:29N 45°25' E 012°56'0 0.0
2017-Oct-12 03:59N 45°25' E 012°56'0 0.0
2017-Oct-12 03:14N 45°25' E 012°56'0 0.0
2017-Oct-12 02:59N 45°25' E 012°56'0 0.0
2017-Oct-12 02:29N 45°25' E 012°56'0 0.0
2017-Oct-12 01:56N 45°25' E 012°56'0 0.0
2017-Oct-12 01:29N 45°25' E 012°56'0 0.0
2017-Oct-12 00:59N 45°25' E 012°56'0 0.0
2017-Oct-12 00:26N 45°25' E 012°56'0 0.0
2017-Oct-11 23:56N 45°25' E 012°56'0 0.0
2017-Oct-11 23:26N 45°25' E 012°56'0 0.0
2017-Oct-11 22:59N 45°25' E 012°56'0 0.0
2017-Oct-11 22:26N 45°25' E 012°56'0 0.0
2017-Oct-11 21:59N 45°25' E 012°56'0 0.0
2017-Oct-11 21:23N 45°25' E 012°56'0 0.0
2017-Oct-11 20:59N 45°25' E 012°56'0 0.0
2017-Oct-11 20:14N 45°25' E 012°56'0 0.1
2017-Oct-11 19:59N 45°25' E 012°56'0 0.1
2017-Oct-11 19:23N 45°25' E 012°56'0 0.0
2017-Oct-11 18:59N 45°25' E 012°56'0 0.0
2017-Oct-11 18:14N 45°25' E 012°56'0 0.0
2017-Oct-11 17:59N 45°25' E 012°56'0 0.0
2017-Oct-11 17:20N 45°25' E 012°56'0 0.0
2017-Oct-11 16:56N 45°25' E 012°56'0 0.0
2017-Oct-10 23:53N 45°25' E 012°55'0 0.0
2017-Oct-10 23:29N 45°25' E 012°55'0 0.0
2017-Oct-10 22:59N 45°25' E 012°55'0 0.1
2017-Oct-10 22:23N 45°25' E 012°56'0 0.0
2017-Oct-10 21:56N 45°25' E 012°56'0 0.0
2017-Oct-10 21:29N 45°25' E 012°56'0 0.0
2017-Oct-10 20:59N 45°25' E 012°56'0 0.0
2017-Oct-10 20:29N 45°25' E 012°56'0 0.0
2017-Oct-10 19:59N 45°25' E 012°56'0 0.0
2017-Oct-10 19:29N 45°25' E 012°56'0 0.0
2017-Oct-10 18:59N 45°25' E 012°56'0 0.0
2017-Oct-10 18:23N 45°25' E 012°56'0 0.0
2017-Oct-10 17:53N 45°25' E 012°56'0 0.0
2017-Oct-10 17:29N 45°25' E 012°56'0 0.0
2017-Oct-10 16:59N 45°25' E 012°56'0 0.0
2017-Oct-10 16:29N 45°25' E 012°56'0 0.0
2017-Oct-10 15:59N 45°25' E 012°56'0 0.0
2017-Oct-10 15:29N 45°25' E 012°56'0 0.0
2017-Oct-10 14:59N 45°25' E 012°56'0 0.0
2017-Oct-10 13:56N 45°25' E 012°56'0 0.0
2017-Oct-10 13:11N 45°25' E 012°56'0 0.0
2017-Oct-10 12:59N 45°25' E 012°56'0 0.0
2017-Oct-10 12:26N 45°25' E 012°56'0 0.0
2017-Oct-10 11:59N 45°25' E 012°56'0 0.0
2017-Oct-10 11:29N 45°25' E 012°56'0 0.0
2017-Oct-10 10:50N 45°25' E 012°56'0 0.0
2017-Oct-10 10:17N 45°25' E 012°56'0 0.0
2017-Oct-10 09:56N 45°25' E 012°56'0 0.0
2017-Oct-10 09:23N 45°25' E 012°56'0 0.0
2017-Oct-10 08:59N 45°25' E 012°56'0 0.0
2017-Oct-10 08:29N 45°25' E 012°56'0 0.0
2017-Oct-10 07:59N 45°25' E 012°55'0 0.1
2017-Oct-10 07:29N 45°25' E 012°55'0 0.0
2017-Oct-10 06:59N 45°25' E 012°55'0 0.0
2017-Oct-10 06:26N 45°25' E 012°55'0 0.1
2017-Oct-10 05:56N 45°25' E 012°55'0 0.1
2017-Oct-10 05:29N 45°25' E 012°55'0 0.1
2017-Oct-10 04:59N 45°25' E 012°55'0 0.1
2017-Oct-10 04:29N 45°25' E 012°56'0 0.1
2017-Oct-10 03:56N 45°25' E 012°56'0 0.0
2017-Oct-10 03:23N 45°25' E 012°56'0 0.0
2017-Oct-10 02:59N 45°25' E 012°56'0 0.0
2017-Oct-10 02:29N 45°25' E 012°56'0 0.0
2017-Oct-10 02:00N 45°25' E 012°56'0 0.0
2017-Oct-10 01:31N 45°25' E 012°56'0 0.1
2017-Oct-10 01:00N 45°25' E 012°56'0 0.3
2017-Oct-10 00:31N 45°25' E 012°55'0 0.2
2017-Oct-10 00:00N 45°25' E 012°56'0 0.1
2017-Oct-09 23:31N 45°25' E 012°56'3 5.3
2017-Oct-09 23:00N 45°26' E 012°59'611.9
2017-Oct-09 22:31N 45°29' E 013°07'611.9
2017-Oct-09 22:01N 45°32' E 013°14'611.9
2017-Oct-09 21:31N 45°34' E 013°22'611.8
2017-Oct-09 21:01N 45°37' E 013°30'611.5
2017-Oct-09 20:31N 45°37' E 013°38'510.0
2017-Oct-09 20:01N 45°37' E 013°45'1 2.1
2017-Oct-09 19:23N 45°37' E 013°47'0 0.0
2017-Oct-09 18:50N 45°37' E 013°47'0 0.0
2017-Oct-09 18:29N 45°37' E 013°47'0 0.0
2017-Oct-09 17:56N 45°37' E 013°47'0 0.0
2017-Oct-09 17:29N 45°37' E 013°47'0 0.0
2017-Oct-09 16:56N 45°37' E 013°47'0 0.0
2017-Oct-09 16:26N 45°37' E 013°47'0 0.0
2017-Oct-09 15:50N 45°37' E 013°47'0 0.0
2017-Oct-09 15:29N 45°37' E 013°47'0 0.0
2017-Oct-09 14:59N 45°37' E 013°47'0 0.0
2017-Oct-09 13:38N 45°37' E 013°47'0 0.0
2017-Oct-09 13:29N 45°37' E 013°47'0 0.0
2017-Oct-09 12:59N 45°37' E 013°47'0 0.0
2017-Oct-09 12:29N 45°37' E 013°47'0 0.0
2017-Oct-09 11:59N 45°37' E 013°47'0 0.0
2017-Oct-09 11:26N 45°37' E 013°47'0 0.0
2017-Oct-09 10:56N 45°37' E 013°47'0 0.0
2017-Oct-09 10:29N 45°37' E 013°47'0 0.0
2017-Oct-09 09:59N 45°37' E 013°47'0 0.0
2017-Oct-09 08:59N 45°37' E 013°47'0 0.0
2017-Oct-09 08:29N 45°37' E 013°47'0 0.0
2017-Oct-09 07:50N 45°37' E 013°47'0 0.0
2017-Oct-09 07:29N 45°37' E 013°47'0 0.0
2017-Oct-09 06:59N 45°37' E 013°47'0 0.0
2017-Oct-09 06:23N 45°37' E 013°47'0 0.0
2017-Oct-09 05:59N 45°37' E 013°47'0 0.0
2017-Oct-09 05:17N 45°37' E 013°47'0 0.0
2017-Oct-09 04:59N 45°37' E 013°47'0 0.0
2017-Oct-09 04:20N 45°37' E 013°47'0 0.0
2017-Oct-09 03:59N 45°37' E 013°47'0 0.0
2017-Oct-09 03:26N 45°37' E 013°47'0 0.0
2017-Oct-09 02:59N 45°37' E 013°47'0 0.0
2017-Oct-09 02:26N 45°37' E 013°47'0 0.0
2017-Oct-09 01:59N 45°37' E 013°47'0 0.0
2017-Oct-09 01:29N 45°37' E 013°47'0 0.0
2017-Oct-09 00:59N 45°37' E 013°47'0 0.0
2017-Oct-09 00:26N 45°37' E 013°47'0 0.0
2017-Oct-08 23:50N 45°37' E 013°47'0 0.0
2017-Oct-08 23:29N 45°37' E 013°47'0 0.0
2017-Oct-08 22:56N 45°37' E 013°47'0 0.0
2017-Oct-08 22:29N 45°37' E 013°47'0 0.0
2017-Oct-08 21:53N 45°37' E 013°47'0 0.0
2017-Oct-08 21:26N 45°37' E 013°47'0 0.0
2017-Oct-08 20:44N 45°37' E 013°47'0 0.0
2017-Oct-08 20:29N 45°37' E 013°47'0 0.0
2017-Oct-08 20:01N 45°37' E 013°47'1 1.3
2017-Oct-08 19:30N 45°37' E 013°46'3 5.8
2017-Oct-08 19:00N 45°37' E 013°42'3 5.1
2017-Oct-08 18:31N 45°39' E 013°39'1 1.4
2017-Oct-08 18:00N 45°40' E 013°40'0 0.0
2017-Oct-08 17:30N 45°40' E 013°40'0 0.0
2017-Oct-08 17:00N 45°40' E 013°40'0 0.1
2017-Oct-08 16:30N 45°40' E 013°40'0 0.0
2017-Oct-08 16:00N 45°40' E 013°40'0 0.0
2017-Oct-08 15:30N 45°40' E 013°40'0 0.0
2017-Oct-08 15:00N 45°40' E 013°40'0 0.0
2017-Oct-08 14:27N 45°40' E 013°40'0 0.0
2017-Oct-08 13:57N 45°40' E 013°40'0 0.0
2017-Oct-08 13:27N 45°40' E 013°40'0 0.0
2017-Oct-08 13:00N 45°40' E 013°40'0 0.1
2017-Oct-08 12:30N 45°40' E 013°40'0 0.0
2017-Oct-08 12:00N 45°40' E 013°40'0 0.0
2017-Oct-08 11:24N 45°40' E 013°40'0 0.0
2017-Oct-08 11:00N 45°40' E 013°40'0 0.1
2017-Oct-08 10:27N 45°40' E 013°40'0 0.1
2017-Oct-08 09:51N 45°40' E 013°39'0 0.1
2017-Oct-08 09:30N 45°40' E 013°39'0 0.0
2017-Oct-08 08:54N 45°40' E 013°39'0 0.1
2017-Oct-08 08:30N 45°40' E 013°39'0 0.0
2017-Oct-08 07:48N 45°40' E 013°39'0 0.0
2017-Oct-08 07:30N 45°40' E 013°39'0 0.0
2017-Oct-08 06:54N 45°40' E 013°39'0 0.0
2017-Oct-08 06:27N 45°40' E 013°39'0 0.1
2017-Oct-08 06:00N 45°40' E 013°39'0 0.1
2017-Oct-08 05:30N 45°40' E 013°39'0 0.0
2017-Oct-08 04:57N 45°40' E 013°39'0 0.0
2017-Oct-08 04:27N 45°40' E 013°39'0 0.0
2017-Oct-08 03:45N 45°40' E 013°39'0 0.1
2017-Oct-08 03:30N 45°40' E 013°39'0 0.0
2017-Oct-08 02:57N 45°40' E 013°39'0 0.1
2017-Oct-08 02:30N 45°40' E 013°39'0 0.0
2017-Oct-08 02:00N 45°40' E 013°39'0 0.0
2017-Oct-08 01:30N 45°40' E 013°39'0 0.0
2017-Oct-08 00:57N 45°40' E 013°39'0 0.0
2017-Oct-08 00:30N 45°40' E 013°39'0 0.0
2017-Oct-07 23:57N 45°40' E 013°39'0 0.0
2017-Oct-07 23:30N 45°40' E 013°39'0 0.0
2017-Oct-07 23:00N 45°40' E 013°39'0 0.0
2017-Oct-07 22:30N 45°40' E 013°39'0 0.0
2017-Oct-07 22:00N 45°40' E 013°39'0 0.0
2017-Oct-07 21:27N 45°40' E 013°39'0 0.0
2017-Oct-07 21:00N 45°40' E 013°39'0 0.0
2017-Oct-07 20:30N 45°40' E 013°39'0 0.0
2017-Oct-07 20:00N 45°40' E 013°39'0 0.2
2017-Oct-07 19:30N 45°40' E 013°40'0 0.3
2017-Oct-07 19:00N 45°40' E 013°40'0 0.0
2017-Oct-07 18:27N 45°40' E 013°40'0 0.0
2017-Oct-07 17:54N 45°40' E 013°40'0 0.0
2017-Oct-07 17:30N 45°40' E 013°40'0 0.0
2017-Oct-07 16:57N 45°40' E 013°40'0 0.0
2017-Oct-07 16:30N 45°40' E 013°40'  
Track history (hours):
 
Tides and Currents Weather Stations Pressure Air Temp Water Temp Dewpoint Dewpoint Depression Visibility Wind Speed Wind Dir Waves Ship Positions

Nissos Serifos

Last reported at 2017-Oct-17 16:05 UTC. Time now 2017-Oct-18 17:00 UTC.
Position N 35°48' E 032°03'.

Length 249 m; draft 8 m.

Type: Tanker. MMSI: 241136000.

Date/timePositionNaut miles runAvg speedWind from/ knotsBaromVisibWave heightAir tempDewpointWater temp
2017-Oct-17 16:05N 35°48' E 032°03'112.1
2017-Oct-17 16:00N 35°48' E 032°02'612.1
2017-Oct-17 15:30N 35°48' E 031°54'612.3
2017-Oct-17 15:01N 35°48' E 031°47'612.3
2017-Oct-17 14:30N 35°48' E 031°39'612.4
2017-Oct-17 14:00N 35°48' E 031°32'712.6
2017-Oct-17 13:29N 35°48' E 031°24'35 9.8
2017-Oct-17 09:53N 35°48' E 030°40'3 7.6
2017-Oct-17 09:30N 35°48' E 030°36'11 7.5
2017-Oct-17 08:00N 35°48' E 030°22'  
2017-Oct-14 23:57N 38°52' E 019°47'512.1
2017-Oct-14 23:30N 38°57' E 019°45'612.3
2017-Oct-14 23:00N 39°03' E 019°42'612.0
2017-Oct-14 22:31N 39°08' E 019°38'612.1
2017-Oct-14 22:01N 39°13' E 019°35'711.9
2017-Oct-14 21:24N 39°20' E 019°31'911.8
2017-Oct-14 20:38N 39°28' E 019°26'211.8
2017-Oct-14 20:28N 39°30' E 019°25'511.8
2017-Oct-14 20:00N 39°35' E 019°22'612.1
2017-Oct-14 19:30N 39°40' E 019°19'612.4
2017-Oct-14 19:00N 39°46' E 019°16'612.4
2017-Oct-14 18:30N 39°52' E 019°12'612.5
2017-Oct-14 18:00N 39°58' E 019°09'612.3
2017-Oct-14 17:30N 40°03' E 019°05'612.1
2017-Oct-14 17:00N 40°07' E 018°60'812.2
2017-Oct-14 16:22N 40°13' E 018°53'512.2
2017-Oct-14 15:59N 40°16' E 018°48'26012.3
2017-Oct-13 18:49N 43°25' E 014°49'512.3
2017-Oct-13 18:24N 43°29' E 014°44'512.1
2017-Oct-13 18:00N 43°32' E 014°40'1312.3
2017-Oct-13 16:57N 43°43' E 014°29'612.0
2017-Oct-13 16:28N 43°47' E 014°24'1211.8
2017-Oct-13 15:27N 43°57' E 014°13'1211.8
2017-Oct-13 14:28N 44°05' E 014°03'611.9
2017-Oct-13 14:00N 44°10' E 013°59'611.9
2017-Oct-13 13:30N 44°15' E 013°54'612.0
2017-Oct-13 13:00N 44°20' E 013°50'612.0
2017-Oct-13 12:30N 44°25' E 013°45'612.0
2017-Oct-13 12:00N 44°30' E 013°40'611.9
2017-Oct-13 11:30N 44°35' E 013°36'612.0
2017-Oct-13 11:00N 44°40' E 013°31'611.9
2017-Oct-13 10:30N 44°45' E 013°27'612.0
2017-Oct-13 10:00N 44°50' E 013°22'611.9
2017-Oct-13 09:30N 44°55' E 013°17'611.8
2017-Oct-13 09:00N 45°00' E 013°13'612.0
2017-Oct-13 08:30N 45°05' E 013°08'611.9
2017-Oct-13 08:00N 45°10' E 013°04'611.8
2017-Oct-13 07:31N 45°16' E 013°01'611.7
2017-Oct-13 07:01N 45°21' E 012°58'4 8.3
2017-Oct-13 06:29N 45°25' E 012°56'0 0.1
2017-Oct-13 05:59N 45°25' E 012°56'0 0.1
2017-Oct-13 05:20N 45°25' E 012°55'0 0.0
2017-Oct-13 04:56N 45°25' E 012°55'0 0.0
2017-Oct-13 04:26N 45°25' E 012°55'0 0.0
2017-Oct-13 03:59N 45°25' E 012°55'0 0.0
2017-Oct-13 03:29N 45°25' E 012°55'0 0.0
2017-Oct-13 02:50N 45°25' E 012°55'0 0.0
2017-Oct-13 02:29N 45°25' E 012°55'0 0.1
2017-Oct-13 01:59N 45°25' E 012°55'0 0.1
2017-Oct-13 01:26N 45°25' E 012°55'0 0.2
2017-Oct-13 00:59N 45°25' E 012°56'0 0.1
2017-Oct-13 00:29N 45°25' E 012°56'0 0.0
2017-Oct-12 23:56N 45°25' E 012°56'0 0.0
2017-Oct-12 23:29N 45°25' E 012°56'0 0.0
2017-Oct-12 22:53N 45°25' E 012°56'0 0.0
2017-Oct-12 22:29N 45°25' E 012°56'0 0.0
2017-Oct-12 21:59N 45°25' E 012°56'0 0.0
2017-Oct-12 21:26N 45°25' E 012°56'0 0.0
2017-Oct-12 20:56N 45°25' E 012°56'0 0.0
2017-Oct-12 20:29N 45°25' E 012°56'0 0.0
2017-Oct-12 19:53N 45°25' E 012°56'0 0.0
2017-Oct-12 19:29N 45°25' E 012°56'0 0.0
2017-Oct-12 18:53N 45°25' E 012°56'0 0.0
2017-Oct-12 18:29N 45°25' E 012°56'0 0.0
2017-Oct-12 17:59N 45°25' E 012°56'0 0.0
2017-Oct-12 17:29N 45°25' E 012°56'0 0.0
2017-Oct-12 16:59N 45°25' E 012°56'0 0.0
2017-Oct-12 16:26N 45°25' E 012°56'0 0.0
2017-Oct-12 15:59N 45°25' E 012°56'0 0.0
2017-Oct-12 15:29N 45°25' E 012°56'0 0.0
2017-Oct-12 14:59N 45°25' E 012°56'0 0.0
2017-Oct-12 14:29N 45°25' E 012°56'0 0.0
2017-Oct-12 13:59N 45°25' E 012°56'0 0.0
2017-Oct-12 13:26N 45°25' E 012°56'0 0.1
2017-Oct-12 12:56N 45°25' E 012°56'0 0.1
2017-Oct-12 12:29N 45°25' E 012°55'0 0.1
2017-Oct-12 11:53N 45°25' E 012°55'0 0.1
2017-Oct-12 11:29N 45°25' E 012°55'0 0.1
2017-Oct-12 10:47N 45°25' E 012°55'0 0.1
2017-Oct-12 10:20N 45°25' E 012°56'0 0.2
2017-Oct-12 09:59N 45°25' E 012°56'0 0.1
2017-Oct-12 09:29N 45°25' E 012°56'0 0.1
2017-Oct-12 08:56N 45°25' E 012°56'0 0.1
2017-Oct-12 08:26N 45°25' E 012°56'0 0.0
2017-Oct-12 07:59N 45°25' E 012°56'0 0.0
2017-Oct-12 07:26N 45°25' E 012°56'0 0.1
2017-Oct-12 06:53N 45°25' E 012°56'0 0.1
2017-Oct-12 06:29N 45°25' E 012°56'0 0.0
2017-Oct-12 05:59N 45°25' E 012°56'0 0.0
2017-Oct-12 05:29N 45°25' E 012°56'0 0.0
2017-Oct-12 04:59N 45°25' E 012°56'0 0.1
2017-Oct-12 04:29N 45°25' E 012°56'0 0.0
2017-Oct-12 03:59N 45°25' E 012°56'0 0.0
2017-Oct-12 03:14N 45°25' E 012°56'0 0.0
2017-Oct-12 02:59N 45°25' E 012°56'0 0.0
2017-Oct-12 02:29N 45°25' E 012°56'0 0.0
2017-Oct-12 01:56N 45°25' E 012°56'0 0.0
2017-Oct-12 01:29N 45°25' E 012°56'0 0.0
2017-Oct-12 00:59N 45°25' E 012°56'0 0.0
2017-Oct-12 00:26N 45°25' E 012°56'0 0.0
2017-Oct-11 23:56N 45°25' E 012°56'0 0.0
2017-Oct-11 23:26N 45°25' E 012°56'0 0.0
2017-Oct-11 22:59N 45°25' E 012°56'0 0.0
2017-Oct-11 22:26N 45°25' E 012°56'0 0.0
2017-Oct-11 21:59N 45°25' E 012°56'0 0.0
2017-Oct-11 21:23N 45°25' E 012°56'0 0.0
2017-Oct-11 20:59N 45°25' E 012°56'0 0.0
2017-Oct-11 20:14N 45°25' E 012°56'0 0.1
2017-Oct-11 19:59N 45°25' E 012°56'0 0.1
2017-Oct-11 19:23N 45°25' E 012°56'0 0.0
2017-Oct-11 18:59N 45°25' E 012°56'0 0.0
2017-Oct-11 18:14N 45°25' E 012°56'0 0.0
2017-Oct-11 17:59N 45°25' E 012°56'0 0.0
2017-Oct-11 17:20N 45°25' E 012°56'0 0.0
2017-Oct-11 16:56N 45°25' E 012°56'0 0.0
2017-Oct-10 23:53N 45°25' E 012°55'0 0.0
2017-Oct-10 23:29N 45°25' E 012°55'0 0.0
2017-Oct-10 22:59N 45°25' E 012°55'0 0.1
2017-Oct-10 22:23N 45°25' E 012°56'0 0.0
2017-Oct-10 21:56N 45°25' E 012°56'0 0.0
2017-Oct-10 21:29N 45°25' E 012°56'0 0.0
2017-Oct-10 20:59N 45°25' E 012°56'0 0.0
2017-Oct-10 20:29N 45°25' E 012°56'0 0.0
2017-Oct-10 19:59N 45°25' E 012°56'0 0.0
2017-Oct-10 19:29N 45°25' E 012°56'0 0.0
2017-Oct-10 18:59N 45°25' E 012°56'0 0.0
2017-Oct-10 18:23N 45°25' E 012°56'0 0.0
2017-Oct-10 17:53N 45°25' E 012°56'0 0.0
2017-Oct-10 17:29N 45°25' E 012°56'0 0.0
2017-Oct-10 16:59N 45°25' E 012°56'0 0.0
2017-Oct-10 16:29N 45°25' E 012°56'0 0.0
2017-Oct-10 15:59N 45°25' E 012°56'0 0.0
2017-Oct-10 15:29N 45°25' E 012°56'0 0.0
2017-Oct-10 14:59N 45°25' E 012°56'0 0.0
2017-Oct-10 13:56N 45°25' E 012°56'0 0.0
2017-Oct-10 13:11N 45°25' E 012°56'0 0.0
2017-Oct-10 12:59N 45°25' E 012°56'0 0.0
2017-Oct-10 12:26N 45°25' E 012°56'0 0.0
2017-Oct-10 11:59N 45°25' E 012°56'0 0.0
2017-Oct-10 11:29N 45°25' E 012°56'0 0.0
2017-Oct-10 10:50N 45°25' E 012°56'0 0.0
2017-Oct-10 10:17N 45°25' E 012°56'0 0.0
2017-Oct-10 09:56N 45°25' E 012°56'0 0.0
2017-Oct-10 09:23N 45°25' E 012°56'0 0.0
2017-Oct-10 08:59N 45°25' E 012°56'0 0.0
2017-Oct-10 08:29N 45°25' E 012°56'0 0.0
2017-Oct-10 07:59N 45°25' E 012°55'0 0.1
2017-Oct-10 07:29N 45°25' E 012°55'0 0.0
2017-Oct-10 06:59N 45°25' E 012°55'0 0.0
2017-Oct-10 06:26N 45°25' E 012°55'0 0.1
2017-Oct-10 05:56N 45°25' E 012°55'0 0.1
2017-Oct-10 05:29N 45°25' E 012°55'0 0.1
2017-Oct-10 04:59N 45°25' E 012°55'0 0.1
2017-Oct-10 04:29N 45°25' E 012°56'0 0.1
2017-Oct-10 03:56N 45°25' E 012°56'0 0.0
2017-Oct-10 03:23N 45°25' E 012°56'0 0.0
2017-Oct-10 02:59N 45°25' E 012°56'0 0.0
2017-Oct-10 02:29N 45°25' E 012°56'0 0.0
2017-Oct-10 02:00N 45°25' E 012°56'0 0.0
2017-Oct-10 01:31N 45°25' E 012°56'0 0.1
2017-Oct-10 01:00N 45°25' E 012°56'0 0.3
2017-Oct-10 00:31N 45°25' E 012°55'0 0.2
2017-Oct-10 00:00N 45°25' E 012°56'0 0.1
2017-Oct-09 23:31N 45°25' E 012°56'3 5.3
2017-Oct-09 23:00N 45°26' E 012°59'611.9
2017-Oct-09 22:31N 45°29' E 013°07'611.9
2017-Oct-09 22:01N 45°32' E 013°14'611.9
2017-Oct-09 21:31N 45°34' E 013°22'611.8
2017-Oct-09 21:01N 45°37' E 013°30'611.5
2017-Oct-09 20:31N 45°37' E 013°38'510.0
2017-Oct-09 20:01N 45°37' E 013°45'1 2.1
2017-Oct-09 19:23N 45°37' E 013°47'0 0.0
2017-Oct-09 18:50N 45°37' E 013°47'0 0.0
2017-Oct-09 18:29N 45°37' E 013°47'0 0.0
2017-Oct-09 17:56N 45°37' E 013°47'0 0.0
2017-Oct-09 17:29N 45°37' E 013°47'0 0.0
2017-Oct-09 16:56N 45°37' E 013°47'0 0.0
2017-Oct-09 16:26N 45°37' E 013°47'0 0.0
2017-Oct-09 15:50N 45°37' E 013°47'0 0.0
2017-Oct-09 15:29N 45°37' E 013°47'0 0.0
2017-Oct-09 14:59N 45°37' E 013°47'0 0.0
2017-Oct-09 13:38N 45°37' E 013°47'0 0.0
2017-Oct-09 13:29N 45°37' E 013°47'0 0.0
2017-Oct-09 12:59N 45°37' E 013°47'0 0.0
2017-Oct-09 12:29N 45°37' E 013°47'0 0.0
2017-Oct-09 11:59N 45°37' E 013°47'0 0.0
2017-Oct-09 11:26N 45°37' E 013°47'0 0.0
2017-Oct-09 10:56N 45°37' E 013°47'0 0.0
2017-Oct-09 10:29N 45°37' E 013°47'0 0.0
2017-Oct-09 09:59N 45°37' E 013°47'0 0.0
2017-Oct-09 08:59N 45°37' E 013°47'0 0.0
2017-Oct-09 08:29N 45°37' E 013°47'0 0.0
2017-Oct-09 07:50N 45°37' E 013°47'0 0.0
2017-Oct-09 07:29N 45°37' E 013°47'0 0.0
2017-Oct-09 06:59N 45°37' E 013°47'0 0.0
2017-Oct-09 06:23N 45°37' E 013°47'0 0.0
2017-Oct-09 05:59N 45°37' E 013°47'0 0.0
2017-Oct-09 05:17N 45°37' E 013°47'0 0.0
2017-Oct-09 04:59N 45°37' E 013°47'0 0.0
2017-Oct-09 04:20N 45°37' E 013°47'0 0.0
2017-Oct-09 03:59N 45°37' E 013°47'0 0.0
2017-Oct-09 03:26N 45°37' E 013°47'0 0.0
2017-Oct-09 02:59N 45°37' E 013°47'0 0.0
2017-Oct-09 02:26N 45°37' E 013°47'0 0.0
2017-Oct-09 01:59N 45°37' E 013°47'0 0.0
2017-Oct-09 01:29N 45°37' E 013°47'0 0.0
2017-Oct-09 00:59N 45°37' E 013°47'0 0.0
2017-Oct-09 00:26N 45°37' E 013°47'0 0.0
2017-Oct-08 23:50N 45°37' E 013°47'0 0.0
2017-Oct-08 23:29N 45°37' E 013°47'0 0.0
2017-Oct-08 22:56N 45°37' E 013°47'0 0.0
2017-Oct-08 22:29N 45°37' E 013°47'0 0.0
2017-Oct-08 21:53N 45°37' E 013°47'0 0.0
2017-Oct-08 21:26N 45°37' E 013°47'0 0.0
2017-Oct-08 20:44N 45°37' E 013°47'0 0.0
2017-Oct-08 20:29N 45°37' E 013°47'0 0.0
2017-Oct-08 20:01N 45°37' E 013°47'1 1.3
2017-Oct-08 19:30N 45°37' E 013°46'3 5.8
2017-Oct-08 19:00N 45°37' E 013°42'3 5.1
2017-Oct-08 18:31N 45°39' E 013°39'1 1.4
2017-Oct-08 18:00N 45°40' E 013°40'0 0.0
2017-Oct-08 17:30N 45°40' E 013°40'0 0.0
2017-Oct-08 17:00N 45°40' E 013°40'0 0.1
2017-Oct-08 16:30N 45°40' E 013°40'0 0.0
2017-Oct-08 16:00N 45°40' E 013°40'0 0.0
2017-Oct-08 15:30N 45°40' E 013°40'0 0.0
2017-Oct-08 15:00N 45°40' E 013°40'0 0.0
2017-Oct-08 14:27N 45°40' E 013°40'0 0.0
2017-Oct-08 13:57N 45°40' E 013°40'0 0.0
2017-Oct-08 13:27N 45°40' E 013°40'0 0.0
2017-Oct-08 13:00N 45°40' E 013°40'0 0.1
2017-Oct-08 12:30N 45°40' E 013°40'0 0.0
2017-Oct-08 12:00N 45°40' E 013°40'0 0.0
2017-Oct-08 11:24N 45°40' E 013°40'0 0.0
2017-Oct-08 11:00N 45°40' E 013°40'0 0.1
2017-Oct-08 10:27N 45°40' E 013°40'0 0.1
2017-Oct-08 09:51N 45°40' E 013°39'0 0.1
2017-Oct-08 09:30N 45°40' E 013°39'0 0.0
2017-Oct-08 08:54N 45°40' E 013°39'0 0.1
2017-Oct-08 08:30N 45°40' E 013°39'0 0.0
2017-Oct-08 07:48N 45°40' E 013°39'0 0.0
2017-Oct-08 07:30N 45°40' E 013°39'0 0.0
2017-Oct-08 06:54N 45°40' E 013°39'0 0.0
2017-Oct-08 06:27N 45°40' E 013°39'0 0.1
2017-Oct-08 06:00N 45°40' E 013°39'0 0.1
2017-Oct-08 05:30N 45°40' E 013°39'0 0.0
2017-Oct-08 04:57N 45°40' E 013°39'0 0.0
2017-Oct-08 04:27N 45°40' E 013°39'0 0.0
2017-Oct-08 03:45N 45°40' E 013°39'0 0.1
2017-Oct-08 03:30N 45°40' E 013°39'0 0.0
2017-Oct-08 02:57N 45°40' E 013°39'0 0.1
2017-Oct-08 02:30N 45°40' E 013°39'0 0.0
2017-Oct-08 02:00N 45°40' E 013°39'0 0.0
2017-Oct-08 01:30N 45°40' E 013°39'0 0.0
2017-Oct-08 00:57N 45°40' E 013°39'0 0.0
2017-Oct-08 00:30N 45°40' E 013°39'0 0.0
2017-Oct-07 23:57N 45°40' E 013°39'0 0.0
2017-Oct-07 23:30N 45°40' E 013°39'0 0.0
2017-Oct-07 23:00N 45°40' E 013°39'0 0.0
2017-Oct-07 22:30N 45°40' E 013°39'0 0.0
2017-Oct-07 22:00N 45°40' E 013°39'0 0.0
2017-Oct-07 21:27N 45°40' E 013°39'0 0.0
2017-Oct-07 21:00N 45°40' E 013°39'0 0.0
2017-Oct-07 20:30N 45°40' E 013°39'0 0.0
2017-Oct-07 20:00N 45°40' E 013°39'0 0.2
2017-Oct-07 19:30N 45°40' E 013°40'0 0.3
2017-Oct-07 19:00N 45°40' E 013°40'0 0.0
2017-Oct-07 18:27N 45°40' E 013°40'0 0.0
2017-Oct-07 17:54N 45°40' E 013°40'0 0.0
2017-Oct-07 17:30N 45°40' E 013°40'0 0.0
2017-Oct-07 16:57N 45°40' E 013°40'0 0.0
2017-Oct-07 16:30N 45°40' E 013°40'  

Dump ship's entire track history